Time;durP1;ratioP1;P1;durP2;ratioP2;P2;SDS_P1;SDS_P2;PMS_P1;PMS_P2;Temp;Humidity;BMP_temperature;BMP_pressure;BME280_temperature;BME280_humidity;BME280_pressure;Samples;Min_cycle;Max_cycle;Signal;HPM_P1;HPM_P2
2023/12/17 00:00:29;;;;;;;40.55;6.40;;;;;;;;;;4984403;28;20053;-53
2023/12/17 00:03:22;;;;;;;53.40;7.65;;;;;;;;;;4994354;28;20049;-53
2023/12/17 00:06:10;;;;;;;50.05;6.15;;;;;;;;;;4984890;28;20053;-53
2023/12/17 00:09:04;;;;;;;44.20;6.40;;;;;;;;;;4987533;28;20356;-50
2023/12/17 00:11:51;;;;;;;49.95;6.22;;;;;;;;;;4986363;28;20141;-60
2023/12/17 00:14:45;;;;;;;68.63;7.53;;;;;;;;;;4989678;28;20444;-59
2023/12/17 00:17:32;;;;;;;52.08;7.03;;;;;;;;;;4989937;28;21341;-59
2023/12/17 00:20:25;;;;;;;50.35;6.68;;;;;;;;;;4983332;28;20057;-59
2023/12/17 00:23:13;;;;;;;48.35;7.32;;;;;;;;;;4996675;28;20053;-59
2023/12/17 00:26:06;;;;;;;55.38;8.40;;;;;;;;;;4989105;28;20052;-59
2023/12/17 00:28:53;;;;;;;50.33;7.28;;;;;;;;;;4990667;28;20536;-59
2023/12/17 00:31:47;;;;;;;54.67;6.45;;;;;;;;;;4992028;28;20506;-59
2023/12/17 00:34:41;;;;;;;55.70;6.82;;;;;;;;;;4996442;28;20062;-59
2023/12/17 00:37:35;;;;;;;44.90;6.35;;;;;;;;;;4992634;28;20048;-69
2023/12/17 00:40:23;;;;;;;59.42;7.00;;;;;;;;;;4994042;28;20522;-54
2023/12/17 00:43:17;;;;;;;51.40;7.10;;;;;;;;;;4991532;28;20120;-55
2023/12/17 00:46:04;;;;;;;57.20;7.30;;;;;;;;;;4990050;28;20077;-53
2023/12/17 00:48:58;;;;;;;45.55;7.07;;;;;;;;;;4986798;28;20054;-56
2023/12/17 00:51:45;;;;;;;55.13;8.45;;;;;;;;;;4985298;28;20869;-55
2023/12/17 00:54:38;;;;;;;64.25;7.18;;;;;;;;;;4992968;28;20034;-55
2023/12/17 00:57:26;;;;;;;59.53;7.45;;;;;;;;;;4994457;28;20050;-58
2023/12/17 01:00:19;;;;;;;46.28;7.63;;;;;;;;;;4993166;28;20046;-59
2023/12/17 01:03:20;;;;;;;66.70;8.00;;;;;;;;;;4996086;28;20049;-59
2023/12/17 01:06:15;;;;;;;63.08;8.25;;;;;;;;;;4998032;28;20053;-62
2023/12/17 01:09:02;;;;;;;52.15;6.70;;;;;;;;;;4993459;28;20160;-61
2023/12/17 01:11:57;;;;;;;63.42;7.97;;;;;;;;;;4982808;28;20061;-61
2023/12/17 01:14:42;;;;;;;55.63;7.22;;;;;;;;;;4987961;28;20060;-61
2023/12/17 01:17:36;;;;;;;65.03;8.57;;;;;;;;;;4986734;28;20556;-62
2023/12/17 01:20:24;;;;;;;59.85;8.15;;;;;;;;;;4981257;28;20046;-62
2023/12/17 01:23:17;;;;;;;49.30;6.82;;;;;;;;;;4985887;28;20953;-62
2023/12/17 01:26:05;;;;;;;61.60;8.15;;;;;;;;;;4990490;28;20050;-62
2023/12/17 01:28:58;;;;;;;80.88;9.00;;;;;;;;;;4993465;28;20105;-62
2023/12/17 01:31:45;;;;;;;53.60;7.88;;;;;;;;;;4995478;28;20053;-61
2023/12/17 01:34:46;;;;;;;60.08;7.38;;;;;;;;;;4995051;28;20049;-61
2023/12/17 01:37:33;;;;;;;74.22;9.57;;;;;;;;;;4993782;28;20074;-59
2023/12/17 01:40:28;;;;;;;62.00;7.95;;;;;;;;;;4995018;28;20493;-59
2023/12/17 01:43:15;;;;;;;56.55;8.85;;;;;;;;;;4995236;28;20045;-59
2023/12/17 01:46:08;;;;;;;73.20;8.35;;;;;;;;;;4997314;28;20069;-59
2023/12/17 01:48:55;;;;;;;74.18;9.32;;;;;;;;;;4995770;28;20042;-59
2023/12/17 01:51:50;;;;;;;55.42;7.78;;;;;;;;;;4996921;28;20409;-62
2023/12/17 01:54:37;;;;;;;72.30;10.05;;;;;;;;;;4999030;28;20046;-61
2023/12/17 01:57:31;;;;;;;83.05;10.30;;;;;;;;;;4997913;28;20490;-61
2023/12/17 02:00:19;;;;;;;81.28;9.38;;;;;;;;;;4994374;28;20050;-62
2023/12/17 02:03:13;;;;;;;63.35;7.93;;;;;;;;;;4996422;28;20061;-59
2023/12/17 02:06:00;;;;;;;69.43;8.95;;;;;;;;;;4994631;28;20065;-53
2023/12/17 02:08:54;;;;;;;77.35;9.68;;;;;;;;;;4991360;28;21244;-56
2023/12/17 02:11:42;;;;;;;65.70;9.32;;;;;;;;;;4983485;28;20533;-55
2023/12/17 02:14:35;;;;;;;74.13;10.02;;;;;;;;;;4990455;28;20053;-56
2023/12/17 02:17:29;;;;;;;70.43;9.43;;;;;;;;;;5000491;28;20042;-54
2023/12/17 02:20:23;;;;;;;84.07;8.90;;;;;;;;;;4991726;28;20054;-56
2023/12/17 02:23:11;;;;;;;89.07;10.25;;;;;;;;;;5000006;28;20340;-55
2023/12/17 02:26:04;;;;;;;79.60;9.32;;;;;;;;;;4996698;28;20042;-54
2023/12/17 02:28:52;;;;;;;78.57;9.20;;;;;;;;;;4993543;28;20144;-52
2023/12/17 02:31:46;;;;;;;54.95;8.02;;;;;;;;;;4998649;28;20194;-54
2023/12/17 02:34:40;;;;;;;67.78;7.50;;;;;;;;;;4997620;28;20065;-62
2023/12/17 02:37:34;;;;;;;79.00;9.32;;;;;;;;;;4997701;28;20084;-62
2023/12/17 02:40:22;;;;;;;64.68;8.80;;;;;;;;;;4996641;28;20050;-62
2023/12/17 02:43:15;;;;;;;61.67;8.27;;;;;;;;;;4995735;28;20054;-63
2023/12/17 02:46:03;;;;;;;73.00;8.57;;;;;;;;;;4997697;28;20109;-62
2023/12/17 02:48:56;;;;;;;60.65;8.02;;;;;;;;;;4996671;28;20041;-62
2023/12/17 02:51:44;;;;;;;61.33;7.45;;;;;;;;;;4992970;28;20047;-62
2023/12/17 02:54:37;;;;;;;57.95;7.80;;;;;;;;;;4988800;28;20050;-62
2023/12/17 02:57:26;;;;;;;72.47;10.90;;;;;;;;;;4988377;28;20046;-62
2023/12/17 03:00:18;;;;;;;58.70;8.13;;;;;;;;;;4986877;28;20136;-69
2023/12/17 03:03:06;;;;;;;71.20;8.70;;;;;;;;;;4986068;28;20039;-54
2023/12/17 03:05:59;;;;;;;64.13;9.40;;;;;;;;;;4997067;28;20053;-55
2023/12/17 03:08:47;;;;;;;77.97;9.50;;;;;;;;;;4996075;28;20448;-54
2023/12/17 03:11:41;;;;;;;71.07;8.38;;;;;;;;;;4997873;28;20535;-56
2023/12/17 03:14:28;;;;;;;63.42;7.50;;;;;;;;;;4994919;28;20054;-56
2023/12/17 03:17:21;;;;;;;69.63;8.30;;;;;;;;;;4999675;28;20061;-59
2023/12/17 03:20:09;;;;;;;67.55;9.23;;;;;;;;;;4996833;28;20449;-59
2023/12/17 03:23:03;;;;;;;71.10;8.55;;;;;;;;;;4998299;28;20042;-60
2023/12/17 03:25:57;;;;;;;66.65;8.30;;;;;;;;;;4996697;28;20101;-59
2023/12/17 03:28:45;;;;;;;63.90;8.35;;;;;;;;;;4994606;28;20050;-60
2023/12/17 03:31:38;;;;;;;63.30;7.95;;;;;;;;;;4996898;28;20096;-60
2023/12/17 03:34:39;;;;;;;69.10;9.50;;;;;;;;;;4998886;28;20081;-60
2023/12/17 03:37:26;;;;;;;56.00;8.07;;;;;;;;;;4984473;28;20051;-60
2023/12/17 03:40:21;;;;;;;62.20;8.32;;;;;;;;;;4997924;28;20046;-60
2023/12/17 03:43:14;;;;;;;59.08;7.60;;;;;;;;;;4998313;28;20053;-59
2023/12/17 03:46:08;;;;;;;59.58;7.55;;;;;;;;;;4995341;28;20096;-55
2023/12/17 03:48:55;;;;;;;54.22;7.53;;;;;;;;;;4994583;28;20069;-55
2023/12/17 03:51:49;;;;;;;55.90;8.23;;;;;;;;;;4996405;28;20043;-56
2023/12/17 03:54:37;;;;;;;66.35;7.80;;;;;;;;;;4992540;28;20190;-53
2023/12/17 03:57:30;;;;;;;51.05;6.05;;;;;;;;;;4995145;28;20050;-62
2023/12/17 04:00:17;;;;;;;65.35;7.95;;;;;;;;;;4994537;28;20050;-59
2023/12/17 04:03:11;;;;;;;50.38;6.40;;;;;;;;;;4995465;28;20568;-59
2023/12/17 04:06:07;;;;;;;60.67;7.50;;;;;;;;;;4992383;28;20061;-59
2023/12/17 04:09:00;;;;;;;58.58;8.25;;;;;;;;;;4993576;28;20061;-59
2023/12/17 04:11:54;;;;;;;61.47;7.15;;;;;;;;;;4995998;28;20576;-59
2023/12/17 04:14:48;;;;;;;58.10;7.88;;;;;;;;;;4990508;28;20145;-58
2023/12/17 04:17:36;;;;;;;53.30;7.30;;;;;;;;;;4995547;28;20057;-58
2023/12/17 04:20:30;;;;;;;63.45;7.97;;;;;;;;;;4997640;28;20054;-58
2023/12/17 04:23:17;;;;;;;55.97;8.55;;;;;;;;;;4998432;28;20508;-58
2023/12/17 04:26:13;;;;;;;45.58;6.28;;;;;;;;;;4994744;28;20184;-60
2023/12/17 04:29:00;;;;;;;46.78;7.15;;;;;;;;;;4999875;28;20042;-70
2023/12/17 04:31:54;;;;;;;62.08;7.50;;;;;;;;;;4995041;28;20135;-70
2023/12/17 04:34:49;;;;;;;45.15;7.30;;;;;;;;;;4994092;28;20062;-70
2023/12/17 04:37:42;;;;;;;44.10;6.75;;;;;;;;;;4995140;28;20441;-70
2023/12/17 04:40:29;;;;;;;45.80;5.43;;;;;;;;;;4995252;28;20049;-70
2023/12/17 04:43:23;;;;;;;47.83;6.55;;;;;;;;;;4998065;28;20104;-63
2023/12/17 04:46:18;;;;;;;37.60;5.13;;;;;;;;;;4992945;28;20049;-62
2023/12/17 04:49:11;;;;;;;39.42;6.05;;;;;;;;;;4996038;28;20053;-61
2023/12/17 04:52:06;;;;;;;41.03;4.85;;;;;;;;;;4995736;28;20054;-61
2023/12/17 04:54:53;;;;;;;29.20;4.93;;;;;;;;;;4992809;28;20113;-54
2023/12/17 04:57:46;;;;;;;35.58;5.22;;;;;;;;;;4996528;28;20433;-51
2023/12/17 05:00:34;;;;;;;36.97;5.35;;;;;;;;;;4994707;28;20096;-48
2023/12/17 05:03:28;;;;;;;30.02;4.45;;;;;;;;;;4993152;28;20053;-53
2023/12/17 05:06:15;;;;;;;26.48;4.40;;;;;;;;;;4991835;28;20385;-51
2023/12/17 05:09:10;;;;;;;30.65;4.78;;;;;;;;;;4993185;28;20065;-51
2023/12/17 05:11:57;;;;;;;25.30;3.88;;;;;;;;;;4997072;28;20140;-70
2023/12/17 05:14:50;;;;;;;35.25;3.95;;;;;;;;;;4996037;28;20054;-69
2023/12/17 05:17:38;;;;;;;36.65;4.38;;;;;;;;;;4999349;28;20058;-69
2023/12/17 05:20:32;;;;;;;40.80;5.20;;;;;;;;;;5001892;28;20133;-69
2023/12/17 05:23:19;;;;;;;34.25;4.82;;;;;;;;;;5000129;28;20057;-52
2023/12/17 05:26:13;;;;;;;27.77;4.20;;;;;;;;;;4999471;28;20104;-53
2023/12/17 05:29:02;;;;;;;29.63;4.97;;;;;;;;;;4997868;28;20038;-54
2023/12/17 05:31:56;;;;;;;39.13;5.50;;;;;;;;;;4995237;28;20049;-55
2023/12/17 05:34:50;;;;;;;42.58;4.75;;;;;;;;;;4983377;28;20054;-56
2023/12/17 05:37:44;;;;;;;33.03;3.80;;;;;;;;;;4981435;28;20100;-55
2023/12/17 05:40:31;;;;;;;30.23;3.67;;;;;;;;;;4981117;28;20046;-58
2023/12/17 05:43:25;;;;;;;31.15;4.85;;;;;;;;;;4980481;28;20054;-57
2023/12/17 05:46:13;;;;;;;21.58;3.55;;;;;;;;;;4976653;28;20049;-56
2023/12/17 05:49:06;;;;;;;19.35;3.40;;;;;;;;;;4980541;28;20062;-56
2023/12/17 05:52:01;;;;;;;22.42;3.05;;;;;;;;;;4981276;28;20042;-58
2023/12/17 05:54:48;;;;;;;13.32;2.88;;;;;;;;;;4980561;28;20077;-51
2023/12/17 05:57:43;;;;;;;17.92;3.55;;;;;;;;;;4981099;28;20062;-50
2023/12/17 06:00:29;;;;;;;21.20;2.60;;;;;;;;;;4981019;28;20060;-53
2023/12/17 06:03:22;;;;;;;14.88;2.70;;;;;;;;;;4980579;28;20254;-48
2023/12/17 06:06:10;;;;;;;12.68;2.03;;;;;;;;;;4983190;28;20140;-51
2023/12/17 06:09:04;;;;;;;12.82;2.05;;;;;;;;;;4982549;28;20113;-59
2023/12/17 06:11:51;;;;;;;9.90;1.88;;;;;;;;;;4977190;28;20060;-60
2023/12/17 06:14:45;;;;;;;7.15;1.73;;;;;;;;;;4983082;28;20052;-60
2023/12/17 06:17:32;;;;;;;7.68;1.33;;;;;;;;;;4981104;28;20057;-59
2023/12/17 06:20:30;;;;;;;8.65;1.52;;;;;;;;;;4973096;28;20054;-61
2023/12/17 06:23:14;;;;;;;3.55;0.90;;;;;;;;;;4961241;28;20752;-58
2023/12/17 06:26:06;;;;;;;6.72;1.00;;;;;;;;;;4969656;28;20184;-58
2023/12/17 06:28:54;;;;;;;4.72;0.82;;;;;;;;;;4977280;28;20345;-59
2023/12/17 06:31:47;;;;;;;3.55;0.98;;;;;;;;;;4980035;28;20391;-59
2023/12/17 06:34:42;;;;;;;7.05;1.10;;;;;;;;;;4984239;28;20518;-59
2023/12/17 06:37:35;;;;;;;2.08;0.80;;;;;;;;;;4986518;28;20121;-57
2023/12/17 06:40:22;;;;;;;1.45;0.45;;;;;;;;;;4988790;28;20108;-56
2023/12/17 06:43:16;;;;;;;3.17;0.77;;;;;;;;;;4997246;28;20665;-55
2023/12/17 06:46:04;;;;;;;4.38;0.57;;;;;;;;;;4990261;28;20039;-57
2023/12/17 06:48:57;;;;;;;2.42;0.68;;;;;;;;;;4990445;28;20038;-62
2023/12/17 06:51:45;;;;;;;1.38;0.55;;;;;;;;;;4983773;28;20057;-50
2023/12/17 06:54:38;;;;;;;2.63;0.80;;;;;;;;;;4993673;28;20113;-51
2023/12/17 06:57:32;;;;;;;1.73;0.60;;;;;;;;;;4987466;28;20417;-51
2023/12/17 07:00:26;;;;;;;3.25;0.70;;;;;;;;;;4987630;28;20155;-50
2023/12/17 07:03:14;;;;;;;3.08;0.60;;;;;;;;;;4999106;28;20069;-49
2023/12/17 07:06:11;;;;;;;5.63;0.73;;;;;;;;;;4992827;28;20053;-62
2023/12/17 07:08:55;;;;;;;1.38;0.60;;;;;;;;;;4994549;28;20542;-62
2023/12/17 07:11:48;;;;;;;3.55;0.55;;;;;;;;;;4987844;28;20081;-64
2023/12/17 07:14:36;;;;;;;2.33;0.55;;;;;;;;;;4999106;28;20049;-62
2023/12/17 07:17:30;;;;;;;2.53;0.60;;;;;;;;;;4981908;28;20092;-56
2023/12/17 07:20:17;;;;;;;3.20;0.73;;;;;;;;;;4993660;28;20604;-54
2023/12/17 07:23:11;;;;;;;2.42;0.70;;;;;;;;;;4994705;28;20104;-50
2023/12/17 07:25:58;;;;;;;3.83;0.85;;;;;;;;;;4988857;28;22816;-52
2023/12/17 07:28:51;;;;;;;2.13;0.50;;;;;;;;;;4992226;28;20050;-53
2023/12/17 07:31:45;;;;;;;0.40;0.35;;;;;;;;;;4995304;28;20073;-52
2023/12/17 07:34:45;;;;;;;0.57;0.22;;;;;;;;;;4994338;28;20493;-60
2023/12/17 07:37:33;;;;;;;0.30;0.30;;;;;;;;;;4993796;28;20042;-61
2023/12/17 07:40:27;;;;;;;2.50;0.50;;;;;;;;;;4984055;28;20054;-60
2023/12/17 07:43:15;;;;;;;2.28;0.50;;;;;;;;;;4996348;28;20058;-59
2023/12/17 07:46:09;;;;;;;2.15;0.60;;;;;;;;;;4993211;28;20505;-53
2023/12/17 07:48:56;;;;;;;1.58;0.63;;;;;;;;;;4994805;28;20046;-61
2023/12/17 07:51:50;;;;;;;8.20;1.23;;;;;;;;;;4995837;28;20549;-62
2023/12/17 07:54:38;;;;;;;10.35;1.30;;;;;;;;;;4995977;28;20046;-61
2023/12/17 07:57:31;;;;;;;18.17;2.65;;;;;;;;;;4995333;28;20050;-61
2023/12/17 08:00:25;;;;;;;21.77;2.90;;;;;;;;;;4985807;28;20579;-61
2023/12/17 08:03:13;;;;;;;21.38;3.03;;;;;;;;;;4984419;28;20646;-62
2023/12/17 08:06:07;;;;;;;30.23;3.67;;;;;;;;;;4994092;28;20485;-62
2023/12/17 08:08:54;;;;;;;32.78;4.00;;;;;;;;;;4982734;28;20102;-62
2023/12/17 08:11:49;;;;;;;44.15;5.18;;;;;;;;;;4989506;28;20061;-60
2023/12/17 08:14:36;;;;;;;41.17;4.65;;;;;;;;;;4995096;28;20131;-59
2023/12/17 08:17:30;;;;;;;46.70;5.93;;;;;;;;;;4997155;28;20050;-51
2023/12/17 08:20:17;;;;;;;45.55;5.28;;;;;;;;;;4994218;28;20043;-50
2023/12/17 08:23:10;;;;;;;41.63;5.00;;;;;;;;;;4995431;28;20053;-54
2023/12/17 08:26:07;;;;;;;56.08;6.47;;;;;;;;;;4995177;28;20054;-54
2023/12/17 08:28:55;;;;;;;44.67;6.05;;;;;;;;;;4990884;28;20109;-53
2023/12/17 08:31:48;;;;;;;56.97;5.32;;;;;;;;;;4988629;28;20097;-53
2023/12/17 08:34:42;;;;;;;34.22;4.95;;;;;;;;;;4991771;28;20579;-54
2023/12/17 08:37:36;;;;;;;35.30;5.03;;;;;;;;;;4992441;28;20104;-53
2023/12/17 08:40:23;;;;;;;25.30;3.72;;;;;;;;;;4991921;28;20131;-48
2023/12/17 08:43:18;;;;;;;29.65;4.53;;;;;;;;;;4992043;28;21444;-61
2023/12/17 08:46:06;;;;;;;15.98;2.83;;;;;;;;;;4991831;28;21352;-58
2023/12/17 08:48:59;;;;;;;15.70;3.10;;;;;;;;;;4995158;28;20053;-57
2023/12/17 08:51:47;;;;;;;27.58;3.53;;;;;;;;;;4993544;28;20050;-59
2023/12/17 08:54:40;;;;;;;26.90;4.05;;;;;;;;;;4988884;28;20053;-58
2023/12/17 08:57:28;;;;;;;37.25;4.43;;;;;;;;;;4992853;28;20081;-59
2023/12/17 09:00:21;;;;;;;41.05;4.85;;;;;;;;;;4982570;28;20154;-58
2023/12/17 09:03:09;;;;;;;48.13;5.55;;;;;;;;;;4983574;28;20042;-55
2023/12/17 09:05:43;;;;;;;42.88;5.28;;;;;;;;;;4991373;28;20203;-55
2023/12/17 09:08:10;;;;;;;58.95;5.72;;;;;;;;;;4985647;28;20923;-54
2023/12/17 09:10:38;;;;;;;28.90;3.45;;;;;;;;;;4993937;28;20099;-62
2023/12/17 09:13:33;;;;;;;39.65;4.20;;;;;;;;;;4991715;28;20078;-70
2023/12/17 09:16:20;;;;;;;36.22;4.40;;;;;;;;;;4991428;28;20083;-71
2023/12/17 09:19:14;;;;;;;37.42;5.13;;;;;;;;;;4990197;28;20057;-70
2023/12/17 09:22:01;;;;;;;37.95;5.07;;;;;;;;;;4990794;28;20490;-71
2023/12/17 09:24:55;;;;;;;29.00;4.60;;;;;;;;;;4991049;28;21067;-71
2023/12/17 09:27:43;;;;;;;55.13;7.32;;;;;;;;;;4985849;28;20133;-60
2023/12/17 09:30:36;;;;;;;60.20;7.00;;;;;;;;;;4991894;28;20054;-70
2023/12/17 09:33:34;;;;;;;78.75;6.57;;;;;;;;;;4985669;28;20054;-70
2023/12/17 09:36:31;;;;;;;77.50;8.98;;;;;;;;;;4992847;28;20119;-69
2023/12/17 09:39:18;;;;;;;93.95;9.95;;;;;;;;;;4986715;28;20046;-70
2023/12/17 09:42:12;;;;;;;71.65;7.80;;;;;;;;;;4984207;28;20176;-70
2023/12/17 09:45:00;;;;;;;84.65;8.75;;;;;;;;;;4987276;28;20096;-71
2023/12/17 09:47:54;;;;;;;85.40;9.57;;;;;;;;;;4980032;28;20046;-56
2023/12/17 09:50:41;;;;;;;77.75;9.30;;;;;;;;;;4990902;28;20049;-62
2023/12/17 09:53:35;;;;;;;52.20;6.85;;;;;;;;;;4991710;28;20054;-62
2023/12/17 09:56:22;;;;;;;52.47;6.90;;;;;;;;;;4988205;28;20050;-62
2023/12/17 09:59:15;;;;;;;37.67;5.22;;;;;;;;;;4993400;28;20054;-61
2023/12/17 10:02:03;;;;;;;32.78;5.05;;;;;;;;;;4992006;28;20535;-61
2023/12/17 10:05:06;;;;;;;55.78;7.10;;;;;;;;;;4989850;28;20109;-60
2023/12/17 10:07:55;;;;;;;31.73;5.30;;;;;;;;;;4996008;28;20116;-61
2023/12/17 10:10:49;;;;;;;32.55;5.20;;;;;;;;;;4999181;28;20704;-60
2023/12/17 10:13:43;;;;;;;45.28;6.57;;;;;;;;;;4997613;28;20056;-61
2023/12/17 10:16:30;;;;;;;41.22;5.15;;;;;;;;;;4993619;28;20051;-61
2023/12/17 10:19:24;;;;;;;41.90;5.25;;;;;;;;;;4994606;28;20046;-61
2023/12/17 10:22:19;;;;;;;35.75;4.85;;;;;;;;;;4996819;28;20404;-53
2023/12/17 10:25:05;;;;;;;24.75;3.42;;;;;;;;;;4994493;28;20098;-61
2023/12/17 10:28:00;;;;;;;39.17;4.70;;;;;;;;;;4995150;28;20049;-72
2023/12/17 10:30:47;;;;;;;21.48;4.15;;;;;;;;;;4995735;28;20221;-72
2023/12/17 10:33:44;;;;;;;31.15;4.03;;;;;;;;;;4995972;28;20039;-71
2023/12/17 10:36:37;;;;;;;30.55;4.70;;;;;;;;;;4996570;28;20605;-71
2023/12/17 10:39:32;;;;;;;31.10;5.10;;;;;;;;;;4997607;28;20050;-71
2023/12/17 10:42:19;;;;;;;26.58;4.07;;;;;;;;;;4993790;28;20109;-57
2023/12/17 10:45:14;;;;;;;39.95;4.72;;;;;;;;;;4994595;28;20057;-59
2023/12/17 10:48:01;;;;;;;32.70;5.47;;;;;;;;;;4995759;28;20552;-59
2023/12/17 10:50:57;;;;;;;29.10;3.90;;;;;;;;;;4995058;28;20105;-58
2023/12/17 10:53:44;;;;;;;22.23;4.10;;;;;;;;;;4996599;28;20100;-59
2023/12/17 10:56:43;;;;;;;24.90;4.03;;;;;;;;;;4999777;28;20046;-59
2023/12/17 10:59:32;;;;;;;32.95;4.72;;;;;;;;;;4995960;28;20045;-58
2023/12/17 11:02:26;;;;;;;35.75;4.88;;;;;;;;;;4997551;28;20053;-58
2023/12/17 11:05:13;;;;;;;34.90;5.50;;;;;;;;;;4998944;28;20052;-56
2023/12/17 11:08:11;;;;;;;31.23;4.38;;;;;;;;;;4992506;28;20101;-56
2023/12/17 11:10:58;;;;;;;43.58;5.10;;;;;;;;;;4993336;28;20045;-60
2023/12/17 11:13:51;;;;;;;35.83;5.55;;;;;;;;;;4984047;28;20066;-60
2023/12/17 11:16:39;;;;;;;27.02;4.72;;;;;;;;;;4981803;28;20065;-62
2023/12/17 11:19:33;;;;;;;47.10;5.10;;;;;;;;;;4991217;28;20238;-61
2023/12/17 11:22:23;;;;;;;56.60;6.68;;;;;;;;;;4983540;28;20137;-61
2023/12/17 11:25:29;;;;;;;39.50;5.78;;;;;;;;;;4988593;28;20410;-61
2023/12/17 11:28:24;;;;;;;49.45;6.68;;;;;;;;;;4993673;28;20137;-60
2023/12/17 11:31:16;;;;;;;51.03;5.53;;;;;;;;;;4990733;28;20056;-60
2023/12/17 11:34:04;;;;;;;54.13;6.47;;;;;;;;;;4994927;28;20065;-59
2023/12/17 11:37:04;;;;;;;52.00;7.63;;;;;;;;;;4989872;28;20053;-60
2023/12/17 11:39:52;;;;;;;67.63;7.35;;;;;;;;;;4991375;28;20050;-47
2023/12/17 11:42:55;;;;;;;57.83;7.45;;;;;;;;;;4988594;28;20080;-61
2023/12/17 11:45:45;;;;;;;68.50;8.90;;;;;;;;;;4989071;28;20049;-60
2023/12/17 11:48:42;;;;;;;59.47;6.50;;;;;;;;;;4989586;28;20137;-60
2023/12/17 11:51:29;;;;;;;44.65;6.13;;;;;;;;;;4993973;28;20104;-60
2023/12/17 11:54:23;;;;;;;68.53;8.13;;;;;;;;;;4994073;28;20611;-60
2023/12/17 11:57:19;;;;;;;42.45;6.25;;;;;;;;;;4993497;28;20052;-70
2023/12/17 12:00:13;;;;;;;40.60;5.38;;;;;;;;;;4994436;28;20041;-69
2023/12/17 12:03:00;;;;;;;52.03;6.85;;;;;;;;;;4994280;28;20729;-69
2023/12/17 12:05:59;;;;;;;40.30;5.90;;;;;;;;;;4993705;28;20060;-70
2023/12/17 12:08:51;;;;;;;43.65;5.63;;;;;;;;;;4990801;28;20053;-52
2023/12/17 12:11:39;;;;;;;60.55;7.25;;;;;;;;;;4991697;28;20053;-56
2023/12/17 12:14:33;;;;;;;37.85;5.30;;;;;;;;;;4992271;28;20053;-56
2023/12/17 12:17:37;;;;;;;41.50;5.47;;;;;;;;;;4988496;28;20077;-57
2023/12/17 12:20:35;;;;;;;43.45;6.10;;;;;;;;;;4987882;28;20098;-54
2023/12/17 12:23:22;;;;;;;38.25;5.75;;;;;;;;;;4990334;28;20085;-55
2023/12/17 12:26:15;;;;;;;44.97;5.75;;;;;;;;;;4991220;28;20091;-59
2023/12/17 12:29:06;;;;;;;55.97;7.60;;;;;;;;;;4993448;28;20053;-59
2023/12/17 12:31:59;;;;;;;51.58;6.70;;;;;;;;;;4989362;28;20097;-59
2023/12/17 12:34:53;;;;;;;59.60;7.32;;;;;;;;;;4987032;28;20081;-61
2023/12/17 12:37:45;;;;;;;63.50;7.40;;;;;;;;;;4974743;28;20108;-60
2023/12/17 12:40:40;;;;;;;60.25;7.78;;;;;;;;;;4980580;28;20050;-61
2023/12/17 12:43:27;;;;;;;53.15;7.55;;;;;;;;;;4989184;28;20465;-62
2023/12/17 12:46:22;;;;;;;46.70;6.50;;;;;;;;;;4971484;28;20062;-61
2023/12/17 12:49:08;;;;;;;55.47;7.50;;;;;;;;;;4966080;28;20066;-61
2023/12/17 12:52:02;;;;;;;43.60;5.85;;;;;;;;;;4990175;28;20046;-61
2023/12/17 12:54:50;;;;;;;42.88;6.10;;;;;;;;;;4989731;28;20476;-62
2023/12/17 12:57:45;;;;;;;45.63;6.03;;;;;;;;;;4987837;28;20241;-61
2023/12/17 13:00:31;;;;;;;42.35;6.55;;;;;;;;;;4986551;28;20049;-61
2023/12/17 13:03:25;;;;;;;47.33;7.18;;;;;;;;;;4992812;28;20050;-62
2023/12/17 13:06:12;;;;;;;54.78;6.20;;;;;;;;;;4990247;28;20046;-61
2023/12/17 13:09:07;;;;;;;53.00;6.95;;;;;;;;;;4996000;28;20501;-61
2023/12/17 13:11:53;;;;;;;26.27;4.53;;;;;;;;;;4991493;28;20140;-59
2023/12/17 13:14:47;;;;;;;24.50;4.68;;;;;;;;;;4990414;28;20046;-59
2023/12/17 13:17:34;;;;;;;36.70;5.85;;;;;;;;;;4983753;28;20641;-58
2023/12/17 13:20:28;;;;;;;28.08;4.07;;;;;;;;;;4988066;28;20057;-58
2023/12/17 13:23:15;;;;;;;32.92;4.55;;;;;;;;;;4986085;28;20050;-62
2023/12/17 13:26:09;;;;;;;19.65;4.55;;;;;;;;;;4989438;28;20451;-61
2023/12/17 13:28:56;;;;;;;18.55;3.20;;;;;;;;;;4985252;28;21207;-61
2023/12/17 13:31:50;;;;;;;11.52;2.53;;;;;;;;;;4987541;28;20050;-61
2023/12/17 13:34:43;;;;;;;8.50;2.05;;;;;;;;;;4989649;28;20068;-61
2023/12/17 13:37:37;;;;;;;14.18;2.72;;;;;;;;;;4983517;28;20499;-61
2023/12/17 13:40:24;;;;;;;8.45;1.85;;;;;;;;;;4992536;28;20050;-59
2023/12/17 13:43:18;;;;;;;11.23;1.50;;;;;;;;;;4990784;28;20046;-58
2023/12/17 13:46:06;;;;;;;6.22;1.77;;;;;;;;;;4993163;28;20080;-59
2023/12/17 13:48:59;;;;;;;9.45;2.13;;;;;;;;;;4995171;28;20045;-58
2023/12/17 13:51:33;;;;;;;5.55;1.52;;;;;;;;;;4995857;28;20060;-63
2023/12/17 13:54:06;;;;;;;9.32;2.08;;;;;;;;;;5000261;28;20046;-49
2023/12/17 13:56:34;;;;;;;8.25;1.58;;;;;;;;;;4994171;28;20143;-49
2023/12/17 13:59:07;;;;;;;3.53;1.08;;;;;;;;;;4993353;28;20046;-51
2023/12/17 14:01:40;;;;;;;3.80;1.33;;;;;;;;;;4994754;28;20517;-48
2023/12/17 14:04:08;;;;;;;5.30;1.30;;;;;;;;;;4996630;28;20058;-53
2023/12/17 14:06:43;;;;;;;3.83;1.30;;;;;;;;;;4995722;28;20163;-52
2023/12/17 14:09:10;;;;;;;4.78;1.30;;;;;;;;;;4999557;28;20054;-62
2023/12/17 14:11:40;;;;;;;;;;;;;;;;;;4979544;28;20540;-62
2023/12/17 14:14:14;;;;;;;5.40;1.67;;;;;;;;;;4996097;28;19925;-62
2023/12/17 14:16:42;;;;;;;9.73;2.10;;;;;;;;;;4994491;28;20509;-62
2023/12/17 14:19:10;;;;;;;6.07;1.80;;;;;;;;;;4993019;28;20546;-70
2023/12/17 14:21:44;;;;;;;10.13;1.90;;;;;;;;;;4997353;28;20061;-54
2023/12/17 14:24:14;;;;;;;7.25;1.90;;;;;;;;;;4997937;28;20057;-52
2023/12/17 14:26:49;;;;;;;8.70;1.73;;;;;;;;;;4994640;28;20145;-51
2023/12/17 14:29:38;;;;;;;11.52;2.22;;;;;;;;;;4995748;28;20089;-52
2023/12/17 14:32:31;;;;;;;10.43;2.30;;;;;;;;;;4997373;28;20050;-50
2023/12/17 14:35:24;;;;;;;10.88;2.60;;;;;;;;;;4996351;28;20146;-51
2023/12/17 14:38:19;;;;;;;8.65;2.38;;;;;;;;;;4997307;28;20046;-55
2023/12/17 14:41:07;;;;;;;8.10;2.10;;;;;;;;;;4994631;28;20120;-57
2023/12/17 14:44:00;;;;;;;7.57;2.47;;;;;;;;;;4996183;28;20045;-56
2023/12/17 14:46:47;;;;;;;9.50;2.00;;;;;;;;;;4993638;28;20510;-50
2023/12/17 14:49:41;;;;;;;9.60;2.75;;;;;;;;;;4989317;28;20042;-60
2023/12/17 14:52:08;;;;;;;9.75;2.28;;;;;;;;;;4992175;28;20056;-55
2023/12/17 14:54:36;;;;;;;8.43;2.22;;;;;;;;;;4993954;28;20042;-57
2023/12/17 14:57:10;;;;;;;8.25;2.05;;;;;;;;;;4994491;28;20050;-56
2023/12/17 14:59:37;;;;;;;16.70;3.47;;;;;;;;;;4993522;28;20041;-54
2023/12/17 15:02:10;;;;;;;16.35;2.60;;;;;;;;;;4987103;28;20077;-54
2023/12/17 15:04:38;;;;;;;15.75;3.08;;;;;;;;;;4990931;28;20080;-54
2023/12/17 15:07:31;;;;;;;10.75;2.33;;;;;;;;;;4988961;28;20072;-62
2023/12/17 15:10:20;;;;;;;9.55;2.45;;;;;;;;;;4988570;28;20118;-68
2023/12/17 15:13:14;;;;;;;17.27;2.90;;;;;;;;;;4988118;28;20049;-68
2023/12/17 15:16:01;;;;;;;13.35;3.05;;;;;;;;;;4990675;28;20054;-69
2023/12/17 15:18:55;;;;;;;18.30;2.72;;;;;;;;;;4991042;28;20053;-68
2023/12/17 15:21:42;;;;;;;19.13;3.38;;;;;;;;;;4990638;28;20465;-68
2023/12/17 15:24:35;;;;;;;20.23;3.38;;;;;;;;;;4990655;28;20053;-68
2023/12/17 15:27:24;;;;;;;21.13;5.05;;;;;;;;;;4993206;28;20056;-68
2023/12/17 15:30:16;;;;;;;23.27;3.75;;;;;;;;;;4990233;28;20061;-68
2023/12/17 15:33:04;;;;;;;20.88;3.78;;;;;;;;;;4988978;28;20567;-68
2023/12/17 15:36:04;;;;;;;19.83;3.45;;;;;;;;;;4989723;28;20071;-68
2023/12/17 15:38:52;;;;;;;18.42;2.80;;;;;;;;;;4985116;28;20472;-69
2023/12/17 15:41:46;;;;;;;28.13;4.28;;;;;;;;;;4986637;28;20095;-68
2023/12/17 15:44:33;;;;;;;29.35;4.80;;;;;;;;;;4992645;28;20041;-54
2023/12/17 15:47:26;;;;;;;33.38;5.20;;;;;;;;;;4987578;28;20054;-50
2023/12/17 15:50:21;;;;;;;42.55;6.13;;;;;;;;;;4985909;28;20055;-52
2023/12/17 15:53:08;;;;;;;34.10;5.25;;;;;;;;;;4982973;28;20394;-51
2023/12/17 15:56:01;;;;;;;28.75;5.68;;;;;;;;;;4986209;28;20058;-54
2023/12/17 15:58:55;;;;;;;37.97;5.70;;;;;;;;;;4987972;28;20050;-52
2023/12/17 16:01:50;;;;;;;46.20;6.80;;;;;;;;;;4987570;28;20075;-62
2023/12/17 16:04:38;;;;;;;28.02;5.03;;;;;;;;;;4988055;28;20053;-58
2023/12/17 16:07:32;;;;;;;26.73;4.82;;;;;;;;;;4987630;28;20057;-58
2023/12/17 16:10:19;;;;;;;29.08;4.97;;;;;;;;;;4986699;28;20131;-58
2023/12/17 16:13:13;;;;;;;28.63;4.70;;;;;;;;;;4985187;28;20050;-57
2023/12/17 16:16:00;;;;;;;29.13;4.57;;;;;;;;;;4990194;28;20086;-57
2023/12/17 16:18:54;;;;;;;45.13;6.22;;;;;;;;;;4989571;28;20488;-50
2023/12/17 16:21:41;;;;;;;31.87;6.57;;;;;;;;;;4991468;28;20057;-49
2023/12/17 16:24:36;;;;;;;53.90;7.05;;;;;;;;;;4993802;28;20081;-50
2023/12/17 16:27:23;;;;;;;34.22;5.55;;;;;;;;;;4989856;28;20196;-53
2023/12/17 16:30:12;;;;;;;41.15;6.10;;;;;;;;;;4991697;28;20465;-60
2023/12/17 16:32:53;;;;;;;49.58;5.88;;;;;;;;;;4990818;28;20133;-54
2023/12/17 16:35:33;;;;;;;43.20;6.60;;;;;;;;;;4992263;28;20061;-52
2023/12/17 16:38:00;;;;;;;32.53;5.65;;;;;;;;;;4989648;28;20413;-50
2023/12/17 16:40:35;;;;;;;29.73;4.47;;;;;;;;;;4989866;28;20053;-48
2023/12/17 16:43:08;;;;;;;33.22;5.05;;;;;;;;;;4992246;28;20053;-49
2023/12/17 16:45:38;;;;;;;25.15;5.60;;;;;;;;;;4989668;28;20140;-53